< < Back
Terminal Aerodrome Forecast


Current Version              Previous Versions:   1  2  3  4  5  6  7  8  9  

Terminal Aerodrome Forecast

925
FTUS44 KMOB 181100
TAFMOB
TAF
KMOB 181130Z 1812/1912 04003KT P6SM FEW100 SCT200
     FM181700 14005KT P6SM SCT050 SCT250
     FM190000 VRB02KT P6SM FEW040 BKN180=



Latest METAR

187
SAUS80 KWBC 181300
MTRMOB
METAR KMOB 181256Z 02005KT 10SM FEW100 BKN200 24/22 A2995 RMK AO2 SLP138
T02440222


USA.gov is the U.S. government's official web portal to all federal, state and local government web resources and services.